CMA CGM Pelleas — DFPH2 — position and weather

sailwx.info

Track history (hours):
 
Tides and Currents Weather Stations Pressure Air Temp Water Temp Dewpoint Dewpoint Depression Visibility Wind Speed Wind Dir Waves Ship Positions

CMA CGM Pelleas

Last reported at 2018-Feb-14 09:09 UTC. Time now 2018-Feb-19 00:09 UTC.
Position N 01°19' E 103°19'.

Length 350 m; draft 12.6 m.

Type: Cargo ship. MMSI: 218846000.

Date/timePositionNaut miles runAvg speedWind from/ knotsBaromVisibWave heightAir tempDewpointWater temp
2018-Feb-14 09:09N 01°19' E 103°19'321.4
2018-Feb-14 09:01N 01°17' E 103°21'1019.9
2018-Feb-14 08:30N 01°13' E 103°30'816.3
2018-Feb-14 08:00N 01°11' E 103°38'714.4
2018-Feb-14 07:30N 01°09' E 103°45'612.1
2018-Feb-14 07:00N 01°11' E 103°50'611.7
2018-Feb-14 06:30N 01°14' E 103°56'2 1.4
2018-Feb-14 04:59N 01°16' E 103°56'0 0.0
2018-Feb-14 04:30N 01°16' E 103°56'0 0.0
2018-Feb-14 04:00N 01°16' E 103°56'0 0.1
2018-Feb-14 03:27N 01°16' E 103°56'0 0.0
2018-Feb-14 02:56N 01°16' E 103°56'0 0.1
2018-Feb-14 02:29N 01°16' E 103°56'0 0.0
2018-Feb-14 02:00N 01°16' E 103°56'0 0.1
2018-Feb-14 01:29N 01°16' E 103°56'0 0.0
2018-Feb-14 00:47N 01°16' E 103°56'0 0.0
2018-Feb-14 00:20N 01°16' E 103°56'0 0.0
2018-Feb-13 23:49N 01°16' E 103°56'0 0.0
2018-Feb-13 23:14N 01°16' E 103°56'0 0.0
2018-Feb-13 22:52N 01°16' E 103°56'0 0.0
2018-Feb-13 22:30N 01°16' E 103°56'0 0.0
2018-Feb-13 21:57N 01°16' E 103°56'0 0.0
2018-Feb-13 21:29N 01°16' E 103°56'0 0.1
2018-Feb-13 20:49N 01°16' E 103°56'0 0.0
2018-Feb-13 20:21N 01°16' E 103°56'0 0.1
2018-Feb-13 19:55N 01°16' E 103°56'1 1.4
2018-Feb-13 19:29N 01°15' E 103°56'4 9.1
2018-Feb-13 19:00N 01°13' E 103°53'5 9.9
2018-Feb-13 18:30N 01°13' E 103°48'2 4.9
2018-Feb-13 18:00N 01°15' E 103°47'0 0.0
2018-Feb-13 17:30N 01°15' E 103°47'0 0.0
2018-Feb-13 17:00N 01°15' E 103°47'0 0.0
2018-Feb-13 16:29N 01°15' E 103°47'0 0.0
2018-Feb-13 16:00N 01°15' E 103°47'0 0.0
2018-Feb-13 15:29N 01°15' E 103°47'0 0.0
2018-Feb-13 15:00N 01°15' E 103°47'0 0.0
2018-Feb-13 14:30N 01°15' E 103°47'0 0.0
2018-Feb-13 14:00N 01°15' E 103°47'0 0.0
2018-Feb-13 13:29N 01°15' E 103°47'0 0.0
2018-Feb-13 13:00N 01°15' E 103°47'0 0.0
2018-Feb-13 12:30N 01°15' E 103°47'0 0.0
2018-Feb-13 12:00N 01°15' E 103°47'0 0.0
2018-Feb-13 11:30N 01°15' E 103°47'0 0.0
2018-Feb-13 10:59N 01°15' E 103°47'0 0.0
2018-Feb-13 10:29N 01°15' E 103°47'0 0.0
2018-Feb-13 10:00N 01°15' E 103°47'0 0.0
2018-Feb-13 09:29N 01°15' E 103°47'0 0.1
2018-Feb-13 09:00N 01°15' E 103°47'0 0.1
2018-Feb-13 08:30N 01°15' E 103°47'0 0.0
2018-Feb-13 08:00N 01°15' E 103°47'0 0.1
2018-Feb-13 07:30N 01°15' E 103°47'0 0.1
2018-Feb-13 06:59N 01°15' E 103°47'0 0.1
2018-Feb-13 06:30N 01°15' E 103°47'0 0.1
2018-Feb-13 05:59N 01°16' E 103°47'0 0.1
2018-Feb-13 05:29N 01°15' E 103°47'0 0.0
2018-Feb-13 04:55N 01°15' E 103°47'0 0.0
2018-Feb-13 04:30N 01°15' E 103°47'0 0.1
2018-Feb-13 04:00N 01°15' E 103°47'0 0.1
2018-Feb-13 03:30N 01°15' E 103°47'0 0.0
2018-Feb-13 02:59N 01°15' E 103°47'0 0.0
2018-Feb-13 02:30N 01°15' E 103°47'0 0.1
2018-Feb-13 01:58N 01°16' E 103°47'0 0.0
2018-Feb-13 01:25N 01°15' E 103°47'0 0.0
2018-Feb-13 00:57N 01°15' E 103°47'0 0.0
2018-Feb-13 00:27N 01°15' E 103°47'0 0.0
2018-Feb-13 00:00N 01°15' E 103°47'0 0.0
2018-Feb-12 23:27N 01°15' E 103°47'0 0.8
2018-Feb-12 23:00N 01°15' E 103°47'1 2.8
2018-Feb-12 22:30N 01°14' E 103°47'4 8.0
2018-Feb-12 22:00N 01°12' E 103°51'5 9.4
2018-Feb-12 21:30N 01°14' E 103°55'3 6.3
2018-Feb-12 20:59N 01°15' E 103°58'5 9.8
2018-Feb-12 20:27N 01°16' E 104°03'510.4
2018-Feb-12 20:00N 01°16' E 104°08'611.2
2018-Feb-12 19:30N 01°17' E 104°13'713.7
2018-Feb-12 18:59N 01°19' E 104°20'  
2018-Feb-10 02:00N 10°36' E 108°24'45418.9 050 / 121016.0 5.4 23.020.727.0
2018-Feb-09 02:00N 17°30' E 111°36'323 7.8 050 / 81017.010.8 23.016.526.0
2018-Feb-07 08:43N 22°20' E 114°08'0 0.0
2018-Feb-07 08:24N 22°20' E 114°08'0 0.1
2018-Feb-07 05:25N 22°20' E 114°07'201 9.8
2018-Feb-06 08:53N 23°07' E 117°39'818.1
2018-Feb-06 08:28N 23°12' E 117°45'818.1
2018-Feb-06 08:00N 23°17' E 117°53'1118.1
2018-Feb-06 07:22N 23°24' E 118°03'718.1
2018-Feb-06 07:00N 23°28' E 118°08'1817.9
2018-Feb-06 06:00N 23°40' E 118°23'1817.9
2018-Feb-06 04:59N 23°53' E 118°37'917.9
2018-Feb-06 04:30N 23°59' E 118°43'917.8
2018-Feb-06 04:00N 24°04' E 118°51'1018.3
2018-Feb-06 03:28N 24°11' E 118°59'918.4
2018-Feb-06 02:58N 24°17' E 119°07'1118.6
2018-Feb-06 02:23N 24°25' E 119°15'44018.1
2018-Feb-05 02:00N 30°00' E 124°36'24618.9 350 / 221030.0 0.5 5.0-0.316.0
2018-Feb-04 13:00N 33°12' E 127°36'   350 / 301026.0 2.0-4.117.0
Track history (hours):
 
Tides and Currents Weather Stations Pressure Air Temp Water Temp Dewpoint Dewpoint Depression Visibility Wind Speed Wind Dir Waves Ship Positions

CMA CGM Pelleas

Last reported at 2018-Feb-14 09:09 UTC. Time now 2018-Feb-19 00:09 UTC.
Position N 01°19' E 103°19'.

Length 350 m; draft 12.6 m.

Type: Cargo ship. MMSI: 218846000.

Date/timePositionNaut miles runAvg speedWind from/ knotsBaromVisibWave heightAir tempDewpointWater temp
2018-Feb-14 09:09N 01°19' E 103°19'321.4
2018-Feb-14 09:01N 01°17' E 103°21'1019.9
2018-Feb-14 08:30N 01°13' E 103°30'816.3
2018-Feb-14 08:00N 01°11' E 103°38'714.4
2018-Feb-14 07:30N 01°09' E 103°45'612.1
2018-Feb-14 07:00N 01°11' E 103°50'611.7
2018-Feb-14 06:30N 01°14' E 103°56'2 1.4
2018-Feb-14 04:59N 01°16' E 103°56'0 0.0
2018-Feb-14 04:30N 01°16' E 103°56'0 0.0
2018-Feb-14 04:00N 01°16' E 103°56'0 0.1
2018-Feb-14 03:27N 01°16' E 103°56'0 0.0
2018-Feb-14 02:56N 01°16' E 103°56'0 0.1
2018-Feb-14 02:29N 01°16' E 103°56'0 0.0
2018-Feb-14 02:00N 01°16' E 103°56'0 0.1
2018-Feb-14 01:29N 01°16' E 103°56'0 0.0
2018-Feb-14 00:47N 01°16' E 103°56'0 0.0
2018-Feb-14 00:20N 01°16' E 103°56'0 0.0
2018-Feb-13 23:49N 01°16' E 103°56'0 0.0
2018-Feb-13 23:14N 01°16' E 103°56'0 0.0
2018-Feb-13 22:52N 01°16' E 103°56'0 0.0
2018-Feb-13 22:30N 01°16' E 103°56'0 0.0
2018-Feb-13 21:57N 01°16' E 103°56'0 0.0
2018-Feb-13 21:29N 01°16' E 103°56'0 0.1
2018-Feb-13 20:49N 01°16' E 103°56'0 0.0
2018-Feb-13 20:21N 01°16' E 103°56'0 0.1
2018-Feb-13 19:55N 01°16' E 103°56'1 1.4
2018-Feb-13 19:29N 01°15' E 103°56'4 9.1
2018-Feb-13 19:00N 01°13' E 103°53'5 9.9
2018-Feb-13 18:30N 01°13' E 103°48'2 4.9
2018-Feb-13 18:00N 01°15' E 103°47'0 0.0
2018-Feb-13 17:30N 01°15' E 103°47'0 0.0
2018-Feb-13 17:00N 01°15' E 103°47'0 0.0
2018-Feb-13 16:29N 01°15' E 103°47'0 0.0
2018-Feb-13 16:00N 01°15' E 103°47'0 0.0
2018-Feb-13 15:29N 01°15' E 103°47'0 0.0
2018-Feb-13 15:00N 01°15' E 103°47'0 0.0
2018-Feb-13 14:30N 01°15' E 103°47'0 0.0
2018-Feb-13 14:00N 01°15' E 103°47'0 0.0
2018-Feb-13 13:29N 01°15' E 103°47'0 0.0
2018-Feb-13 13:00N 01°15' E 103°47'0 0.0
2018-Feb-13 12:30N 01°15' E 103°47'0 0.0
2018-Feb-13 12:00N 01°15' E 103°47'0 0.0
2018-Feb-13 11:30N 01°15' E 103°47'0 0.0
2018-Feb-13 10:59N 01°15' E 103°47'0 0.0
2018-Feb-13 10:29N 01°15' E 103°47'0 0.0
2018-Feb-13 10:00N 01°15' E 103°47'0 0.0
2018-Feb-13 09:29N 01°15' E 103°47'0 0.1
2018-Feb-13 09:00N 01°15' E 103°47'0 0.1
2018-Feb-13 08:30N 01°15' E 103°47'0 0.0
2018-Feb-13 08:00N 01°15' E 103°47'0 0.1
2018-Feb-13 07:30N 01°15' E 103°47'0 0.1
2018-Feb-13 06:59N 01°15' E 103°47'0 0.1
2018-Feb-13 06:30N 01°15' E 103°47'0 0.1
2018-Feb-13 05:59N 01°16' E 103°47'0 0.1
2018-Feb-13 05:29N 01°15' E 103°47'0 0.0
2018-Feb-13 04:55N 01°15' E 103°47'0 0.0
2018-Feb-13 04:30N 01°15' E 103°47'0 0.1
2018-Feb-13 04:00N 01°15' E 103°47'0 0.1
2018-Feb-13 03:30N 01°15' E 103°47'0 0.0
2018-Feb-13 02:59N 01°15' E 103°47'0 0.0
2018-Feb-13 02:30N 01°15' E 103°47'0 0.1
2018-Feb-13 01:58N 01°16' E 103°47'0 0.0
2018-Feb-13 01:25N 01°15' E 103°47'0 0.0
2018-Feb-13 00:57N 01°15' E 103°47'0 0.0
2018-Feb-13 00:27N 01°15' E 103°47'0 0.0
2018-Feb-13 00:00N 01°15' E 103°47'0 0.0
2018-Feb-12 23:27N 01°15' E 103°47'0 0.8
2018-Feb-12 23:00N 01°15' E 103°47'1 2.8
2018-Feb-12 22:30N 01°14' E 103°47'4 8.0
2018-Feb-12 22:00N 01°12' E 103°51'5 9.4
2018-Feb-12 21:30N 01°14' E 103°55'3 6.3
2018-Feb-12 20:59N 01°15' E 103°58'5 9.8
2018-Feb-12 20:27N 01°16' E 104°03'510.4
2018-Feb-12 20:00N 01°16' E 104°08'611.2
2018-Feb-12 19:30N 01°17' E 104°13'713.7
2018-Feb-12 18:59N 01°19' E 104°20'  
2018-Feb-10 02:00N 10°36' E 108°24'45418.9 050 / 121016.0 5.4 23.020.727.0
2018-Feb-09 02:00N 17°30' E 111°36'323 7.8 050 / 81017.010.8 23.016.526.0
2018-Feb-07 08:43N 22°20' E 114°08'0 0.0
2018-Feb-07 08:24N 22°20' E 114°08'0 0.1
2018-Feb-07 05:25N 22°20' E 114°07'201 9.8
2018-Feb-06 08:53N 23°07' E 117°39'818.1
2018-Feb-06 08:28N 23°12' E 117°45'818.1
2018-Feb-06 08:00N 23°17' E 117°53'1118.1
2018-Feb-06 07:22N 23°24' E 118°03'718.1
2018-Feb-06 07:00N 23°28' E 118°08'1817.9
2018-Feb-06 06:00N 23°40' E 118°23'1817.9
2018-Feb-06 04:59N 23°53' E 118°37'917.9
2018-Feb-06 04:30N 23°59' E 118°43'917.8
2018-Feb-06 04:00N 24°04' E 118°51'1018.3
2018-Feb-06 03:28N 24°11' E 118°59'918.4
2018-Feb-06 02:58N 24°17' E 119°07'1118.6
2018-Feb-06 02:23N 24°25' E 119°15'44018.1
2018-Feb-05 02:00N 30°00' E 124°36'24618.9 350 / 221030.0 0.5 5.0-0.316.0
2018-Feb-04 13:00N 33°12' E 127°36'   350 / 301026.0 2.0-4.117.0

Dump ship's entire track history